Time;durP1;ratioP1;P1;durP2;ratioP2;P2;SDS_P1;SDS_P2;PMS_P1;PMS_P2;Temp;Humidity;BMP_temperature;BMP_pressure;BME280_temperature;BME280_humidity;BME280_pressure;Samples;Min_cycle;Max_cycle;Signal;HPM_P1;HPM_P2
2021/10/14 00:03:51;;;;;;;23.20;19.00;;;;;;;9.38;65.26;95232.13;5489518;23;20056;-81
2021/10/14 00:06:17;;;;;;;24.70;17.90;;;;;;;9.42;64.87;95225.50;5010246;28;20034;-82
2021/10/14 00:08:42;;;;;;;27.40;19.58;;;;;;;9.41;64.45;95228.31;5004645;28;20033;-83
2021/10/14 00:14:03;;;;;;;22.58;18.55;;;;;;;9.50;65.48;95227.84;5405723;23;20448;-82
2021/10/14 00:16:29;;;;;;;23.48;17.52;;;;;;;9.49;64.64;95210.69;5010270;28;20038;-82
2021/10/14 00:18:54;;;;;;;20.48;16.77;;;;;;;9.55;64.12;95215.00;5003634;28;20034;-82
2021/10/14 00:24:08;;;;;;;25.15;16.85;;;;;;;9.56;64.41;95226.97;5394358;23;20089;-82
2021/10/14 00:26:34;;;;;;;23.80;16.85;;;;;;;9.59;64.60;95236.13;5009648;28;20046;-82
2021/10/14 00:29:05;;;;;;;24.75;18.88;;;;;;;9.59;64.36;95229.13;5000933;28;20153;-82
2021/10/14 00:31:31;;;;;;;19.77;16.40;;;;;;;9.56;64.42;95221.78;5001936;28;20037;-82
2021/10/14 00:33:56;;;;;;;23.05;16.65;;;;;;;9.56;64.72;95224.38;5010134;28;20564;-82
2021/10/14 00:36:22;;;;;;;24.02;16.70;;;;;;;9.50;64.20;95225.25;4974722;28;20518;-82
2021/10/14 00:38:47;;;;;;;30.58;17.10;;;;;;;9.46;65.58;95225.91;5005260;28;20119;-82
2021/10/14 00:43:48;;;;;;;21.40;15.32;;;;;;;9.49;64.79;95226.25;5052856;23;20054;-81
2021/10/14 00:46:17;;;;;;;22.88;16.58;;;;;;;9.49;65.22;95218.47;5029684;28;20339;-82
2021/10/14 00:48:42;;;;;;;20.27;16.38;;;;;;;9.48;65.67;95219.47;5001418;28;20083;-82
2021/10/14 00:51:08;;;;;;;18.70;15.73;;;;;;;9.48;64.90;95208.31;4987308;28;20031;-85
2021/10/14 00:53:38;;;;;;;22.73;15.57;;;;;;;9.49;65.03;95210.69;4986576;28;20039;-84
2021/10/14 00:56:07;;;;;;;19.92;15.07;;;;;;;9.50;64.82;95217.47;5002912;28;20038;-84
2021/10/14 00:58:34;;;;;;;17.83;14.15;;;;;;;9.47;64.91;95207.50;5004140;28;20124;-84
2021/10/14 01:01:23;;;;;;;19.70;14.75;;;;;;;9.45;65.42;95225.09;5001929;28;20045;-84
2021/10/14 01:03:49;;;;;;;24.50;16.23;;;;;;;9.40;65.22;95222.34;4998435;28;20044;-83
2021/10/14 01:06:14;;;;;;;22.38;14.82;;;;;;;9.40;65.45;95216.34;5004800;28;20030;-83
2021/10/14 01:08:39;;;;;;;19.15;14.45;;;;;;;9.41;65.10;95223.91;5004057;28;20030;-83
2021/10/14 01:11:05;;;;;;;21.95;15.15;;;;;;;9.43;64.63;95228.91;5005612;28;20045;-83
2021/10/14 01:13:30;;;;;;;19.30;15.48;;;;;;;9.39;65.04;95231.13;5006886;28;20041;-83
2021/10/14 01:15:56;;;;;;;21.08;15.27;;;;;;;9.40;65.42;95237.91;4989417;28;20037;-83
2021/10/14 01:18:21;;;;;;;23.85;15.20;;;;;;;9.40;65.34;95232.72;4970978;28;20026;-84
2021/10/14 01:20:47;;;;;;;18.40;15.23;;;;;;;9.37;65.30;95238.34;4988359;28;20033;-83
2021/10/14 01:23:12;;;;;;;17.85;14.27;;;;;;;9.31;65.48;95234.00;5004596;28;20033;-83
2021/10/14 01:25:38;;;;;;;22.02;14.73;;;;;;;9.29;65.94;95229.03;5006202;28;20026;-82
2021/10/14 01:28:03;;;;;;;21.88;14.40;;;;;;;9.30;65.73;95233.22;5005395;28;20034;-83
2021/10/14 01:30:29;;;;;;;17.20;14.10;;;;;;;9.33;65.46;95225.00;4987857;28;20033;-83
2021/10/14 01:32:54;;;;;;;20.55;15.68;;;;;;;9.33;65.42;95232.00;4992343;28;20018;-82
2021/10/14 01:35:20;;;;;;;16.63;14.05;;;;;;;9.30;65.97;95233.22;4974516;28;20025;-83
2021/10/14 01:37:46;;;;;;;19.85;13.57;;;;;;;9.32;65.84;95217.44;4975054;28;20041;-83
2021/10/14 01:40:12;;;;;;;20.77;13.85;;;;;;;9.27;65.39;95217.25;4992518;28;20062;-84
2021/10/14 01:42:37;;;;;;;16.90;13.35;;;;;;;9.25;65.93;95225.25;5003243;28;20033;-84
2021/10/14 01:45:03;;;;;;;24.20;13.73;;;;;;;9.31;65.64;95228.81;4972079;28;20034;-84
2021/10/14 01:47:29;;;;;;;16.85;13.25;;;;;;;9.32;65.88;95220.03;4989979;28;20096;-84
2021/10/14 01:49:54;;;;;;;15.50;12.95;;;;;;;9.24;66.98;95217.69;4973446;28;20037;-84
2021/10/14 01:52:26;;;;;;;19.30;15.35;;;;;;;9.26;66.97;95220.88;5008865;28;20037;-84
2021/10/14 01:54:51;;;;;;;24.10;17.83;;;;;;;9.27;67.06;95223.28;5005882;28;20088;-83
2021/10/14 01:57:16;;;;;;;22.42;14.95;;;;;;;9.29;67.20;95230.84;5004842;28;20034;-84
2021/10/14 01:59:42;;;;;;;17.75;14.10;;;;;;;9.29;66.50;95236.81;5006884;28;20096;-83
2021/10/14 02:02:07;;;;;;;17.17;14.65;;;;;;;9.27;67.27;95238.00;5033784;23;20402;-83
2021/10/14 02:04:33;;;;;;;22.90;14.13;;;;;;;9.26;67.31;95231.25;5006017;28;20552;-85
2021/10/14 02:06:58;;;;;;;17.40;14.15;;;;;;;9.22;67.98;95230.09;4974840;28;20038;-83
2021/10/14 02:09:24;;;;;;;17.73;14.07;;;;;;;9.26;67.65;95241.63;4997005;28;20124;-84
2021/10/14 02:11:49;;;;;;;16.83;13.73;;;;;;;9.29;67.23;95238.63;4978461;28;20053;-85
2021/10/14 02:14:15;;;;;;;18.80;13.75;;;;;;;9.27;67.81;95243.22;4978418;28;20042;-85
2021/10/14 02:16:40;;;;;;;19.75;13.30;;;;;;;9.24;67.84;95243.63;4995132;28;20029;-83
2021/10/14 02:19:06;;;;;;;17.48;13.85;;;;;;;9.26;68.34;95239.03;4962379;28;20038;-84
2021/10/14 02:21:31;;;;;;;18.50;16.13;;;;;;;9.22;68.62;95245.66;4979747;28;20027;-83
2021/10/14 02:23:57;;;;;;;20.55;16.33;;;;;;;9.22;68.31;95248.25;4975725;28;20034;-83
2021/10/14 02:26:22;;;;;;;25.00;17.42;;;;;;;9.23;68.23;95249.84;4994108;28;20078;-83
2021/10/14 02:28:48;;;;;;;20.17;14.93;;;;;;;9.23;68.25;95252.44;4994789;28;20041;-83
2021/10/14 02:31:13;;;;;;;18.95;14.35;;;;;;;9.18;68.87;95249.69;4962691;28;20434;-83
2021/10/14 02:33:38;;;;;;;19.40;13.50;;;;;;;9.13;69.16;95257.31;4980159;28;20038;-82
2021/10/14 02:36:04;;;;;;;22.38;14.88;;;;;;;9.10;68.70;95252.53;4978464;28;20142;-81
2021/10/14 02:38:29;;;;;;;19.50;13.80;;;;;;;9.09;68.82;95256.13;4960721;28;20101;-82
2021/10/14 02:40:55;;;;;;;18.25;14.82;;;;;;;9.06;68.38;95261.75;4994323;28;20023;-82
2021/10/14 02:43:20;;;;;;;23.95;15.70;;;;;;;8.99;68.99;95257.41;4993130;28;20030;-81
2021/10/14 02:45:46;;;;;;;19.33;13.98;;;;;;;9.07;69.50;95268.53;4994294;28;20022;-81
2021/10/14 02:48:11;;;;;;;14.70;13.15;;;;;;;9.08;68.87;95262.31;4976466;28;20435;-81
2021/10/14 02:50:36;;;;;;;15.85;12.90;;;;;;;9.08;70.28;95270.91;4994752;28;20037;-81
2021/10/14 02:53:02;;;;;;;20.17;13.65;;;;;;;9.08;69.12;95259.72;4992775;28;20572;-81
2021/10/14 02:55:27;;;;;;;18.50;13.48;;;;;;;9.01;69.64;95270.16;4994540;28;20038;-81
2021/10/14 02:57:53;;;;;;;17.15;14.27;;;;;;;9.01;69.61;95265.78;4976611;28;20038;-82
2021/10/14 03:00:18;;;;;;;17.20;14.10;;;;;;;9.05;70.08;95271.34;5010039;28;20034;-84
2021/10/14 03:02:44;;;;;;;21.83;15.48;;;;;;;9.03;69.99;95274.13;4993677;28;20113;-83
2021/10/14 03:05:09;;;;;;;19.00;14.82;;;;;;;9.03;70.24;95275.94;4976786;28;20541;-83
2021/10/14 03:07:35;;;;;;;18.00;15.25;;;;;;;9.02;70.54;95284.72;4960455;28;20506;-85
2021/10/14 03:10:00;;;;;;;17.40;14.25;;;;;;;9.07;70.40;95281.50;4994199;28;20117;-84
2021/10/14 03:12:26;;;;;;;16.95;14.02;;;;;;;9.07;70.31;95284.88;4978782;28;20052;-86
2021/10/14 03:14:51;;;;;;;19.05;14.15;;;;;;;9.02;70.22;95282.13;4998291;28;20030;-84
2021/10/14 03:19:52;;;;;;;20.98;14.65;;;;;;;9.06;70.46;95285.09;5049291;23;20053;-86
2021/10/14 03:22:17;;;;;;;18.70;14.75;;;;;;;8.93;70.82;95276.38;5005433;28;20100;-84
2021/10/14 03:24:43;;;;;;;19.10;14.75;;;;;;;8.99;70.71;95285.16;4970460;28;20590;-85
2021/10/14 03:27:08;;;;;;;19.05;14.48;;;;;;;9.00;70.46;95282.34;5001345;28;20048;-87
2021/10/14 03:29:34;;;;;;;17.50;15.05;;;;;;;9.01;71.05;95290.91;5001367;28;20037;-85
2021/10/14 03:31:59;;;;;;;25.77;16.25;;;;;;;8.99;70.57;95283.34;5000613;28;20031;-85
2021/10/14 03:34:31;;;;;;;28.05;16.02;;;;;;;9.02;70.45;95282.94;4984878;28;20646;-85
2021/10/14 03:36:56;;;;;;;20.88;15.82;;;;;;;9.02;70.80;95288.13;4999326;28;20521;-85
2021/10/14 03:39:21;;;;;;;19.17;15.35;;;;;;;9.02;70.95;95285.53;5008245;28;20029;-84
2021/10/14 03:41:47;;;;;;;21.63;17.00;;;;;;;8.98;71.12;95278.38;4987353;28;20030;-84
2021/10/14 03:44:13;;;;;;;19.35;16.02;;;;;;;8.97;71.48;95285.38;5006299;28;20402;-84
2021/10/14 03:46:40;;;;;;;19.77;16.15;;;;;;;9.02;71.03;95282.94;5003126;28;20379;-85
2021/10/14 03:49:11;;;;;;;16.50;14.48;;;;;;;8.99;71.70;95278.16;4987296;28;20069;-81
2021/10/14 03:54:12;;;;;;;18.55;13.80;;;;;;;9.02;70.43;95288.13;5049374;23;20057;-83
2021/10/14 03:56:38;;;;;;;17.13;13.68;;;;;;;9.01;71.06;95289.13;5010171;28;20414;-84
2021/10/14 03:59:03;;;;;;;18.85;14.45;;;;;;;9.01;71.34;95294.31;4988630;28;20038;-80
2021/10/14 04:01:29;;;;;;;14.88;13.15;;;;;;;8.97;70.78;95280.19;5010579;28;20027;-84
2021/10/14 04:03:54;;;;;;;23.00;16.38;;;;;;;8.99;70.86;95287.75;4989964;28;20031;-84
2021/10/14 04:06:20;;;;;;;26.15;18.45;;;;;;;8.98;71.87;95286.94;5008731;28;20026;-85
2021/10/14 04:08:45;;;;;;;28.60;18.27;;;;;;;8.94;71.98;95285.75;5007856;28;20409;-81
2021/10/14 04:11:11;;;;;;;28.15;19.70;;;;;;;8.95;70.53;95292.56;5005666;28;20034;-87
2021/10/14 04:13:36;;;;;;;29.95;22.45;;;;;;;8.95;71.76;95295.16;4977955;28;20425;-85
2021/10/14 04:16:02;;;;;;;25.15;20.02;;;;;;;8.83;72.25;95289.03;5012853;28;20030;-85
2021/10/14 04:18:28;;;;;;;24.63;18.58;;;;;;;8.90;71.73;95292.38;4996624;28;20030;-85
2021/10/14 04:20:53;;;;;;;20.63;16.50;;;;;;;8.97;71.67;95294.94;5003299;28;20037;-84
2021/10/14 04:23:20;;;;;;;18.35;14.98;;;;;;;8.91;71.24;95295.75;5008403;28;20042;-84
2021/10/14 04:25:46;;;;;;;21.55;16.10;;;;;;;8.91;71.36;95300.94;5023608;28;20101;-83
2021/10/14 04:28:11;;;;;;;18.27;14.80;;;;;;;8.91;72.21;95296.56;5006876;28;20038;-85
2021/10/14 04:30:37;;;;;;;25.67;15.68;;;;;;;8.94;71.67;95293.53;5015396;28;20045;-83
2021/10/14 04:33:03;;;;;;;18.02;12.68;;;;;;;8.94;71.40;95296.13;5009535;28;20038;-84
2021/10/14 04:35:28;;;;;;;18.10;14.52;;;;;;;8.91;71.66;95300.94;5014558;28;20030;-84
2021/10/14 04:37:54;;;;;;;16.70;13.55;;;;;;;8.93;71.64;95299.72;5014608;28;20460;-84
2021/10/14 04:40:19;;;;;;;19.52;14.68;;;;;;;8.97;71.83;95300.13;5011025;28;20037;-84
2021/10/14 04:42:45;;;;;;;17.73;15.00;;;;;;;8.99;71.93;95305.91;5009949;28;20045;-85
2021/10/14 04:45:11;;;;;;;18.95;14.75;;;;;;;9.01;71.83;95304.69;5009857;28;20033;-82
2021/10/14 04:47:40;;;;;;;24.45;18.42;;;;;;;9.03;71.80;95314.84;5010511;28;20037;-84
2021/10/14 04:50:14;;;;;;;25.83;20.77;;;;;;;9.07;71.34;95315.22;5014531;28;20018;-84
2021/10/14 04:52:40;;;;;;;24.25;19.23;;;;;;;9.04;72.18;95311.25;5012153;28;20029;-85
2021/10/14 04:55:06;;;;;;;34.90;23.05;;;;;;;9.03;71.53;95315.63;5012856;28;20085;-84
2021/10/14 04:57:31;;;;;;;45.05;27.10;;;;;;;9.03;72.19;95310.44;5015258;28;20117;-84
2021/10/14 04:59:57;;;;;;;39.97;28.13;;;;;;;9.00;72.16;95310.09;5014148;28;20046;-86
2021/10/14 05:02:22;;;;;;;39.28;28.20;;;;;;;9.03;71.86;95310.44;5008153;28;20046;-85
2021/10/14 05:04:48;;;;;;;42.13;28.90;;;;;;;8.99;72.47;95314.47;5008044;28;20092;-85
2021/10/14 05:07:13;;;;;;;42.45;31.02;;;;;;;8.99;72.62;95313.69;5004659;28;20038;-84
2021/10/14 05:09:39;;;;;;;46.03;30.77;;;;;;;8.99;72.35;95316.28;5012516;28;20030;-84
2021/10/14 05:12:04;;;;;;;51.78;33.88;;;;;;;9.03;72.73;95315.63;4992674;28;20034;-84
2021/10/14 05:14:30;;;;;;;46.65;31.75;;;;;;;9.05;72.64;95322.41;4994255;28;20481;-84
2021/10/14 05:17:02;;;;;;;38.25;28.98;;;;;;;9.02;72.94;95321.03;4976401;28;20022;-85
2021/10/14 05:19:27;;;;;;;40.83;28.83;;;;;;;9.05;72.42;95325.00;5011616;28;20045;-84
2021/10/14 05:21:56;;;;;;;35.50;27.40;;;;;;;9.06;72.04;95329.19;5011647;28;20122;-85
2021/10/14 05:24:21;;;;;;;37.25;28.65;;;;;;;9.06;72.53;95318.81;4978067;28;20034;-84
2021/10/14 05:26:47;;;;;;;32.85;23.50;;;;;;;9.10;72.48;95325.16;4994249;28;20030;-84
2021/10/14 05:29:12;;;;;;;27.88;20.60;;;;;;;9.13;71.79;95324.78;4994919;28;20038;-85
2021/10/14 05:31:37;;;;;;;24.30;20.48;;;;;;;9.12;72.07;95326.56;4978782;28;20035;-85
2021/10/14 05:34:04;;;;;;;28.92;21.95;;;;;;;9.14;72.32;95331.56;4997198;28;20036;-84
2021/10/14 05:36:29;;;;;;;35.55;25.48;;;;;;;9.10;72.36;95330.34;5011690;28;20045;-84
2021/10/14 05:38:55;;;;;;;47.40;31.30;;;;;;;9.09;72.82;95333.97;4976541;28;20019;-85
2021/10/14 05:41:21;;;;;;;13.15;10.75;;;;;;;9.11;69.41;95340.56;5011883;28;20417;-85
2021/10/14 05:43:46;;;;;;;26.42;15.77;;;;;;;9.08;67.00;95333.16;5011783;28;20034;-85
2021/10/14 05:46:12;;;;;;;28.90;21.20;;;;;;;9.12;69.23;95333.56;4994739;28;20292;-84
2021/10/14 05:48:38;;;;;;;37.35;24.88;;;;;;;9.07;69.43;95336.75;4990573;28;20053;-82
2021/10/14 05:51:03;;;;;;;45.78;31.50;;;;;;;9.05;70.04;95340.56;5006233;28;20034;-83
2021/10/14 05:53:47;;;;;;;38.80;27.45;;;;;;;9.08;70.08;95347.94;5011320;28;20025;-86
2021/10/14 05:56:13;;;;;;;42.00;27.85;;;;;;;9.11;70.47;95344.91;5009354;28;20064;-86
2021/10/14 05:58:38;;;;;;;45.33;28.15;;;;;;;9.12;71.05;95336.16;5012056;28;20057;-86
2021/10/14 06:01:04;;;;;;;35.08;25.77;;;;;;;9.21;71.98;95353.84;5000725;28;20042;-86
2021/10/14 06:03:29;;;;;;;55.53;37.83;;;;;;;9.24;71.83;95358.59;4992491;28;20417;-86
2021/10/14 06:05:54;;;;;;;55.47;36.17;;;;;;;9.23;71.21;95362.22;5009901;28;20030;-86
2021/10/14 06:08:46;;;;;;;35.50;24.73;;;;;;;9.23;69.65;95358.81;5010068;28;20092;-86
2021/10/14 06:11:12;;;;;;;22.00;15.13;;;;;;;9.18;69.84;95374.22;4950164;28;20054;-85
2021/10/14 06:13:41;;;;;;;10.05;7.55;;;;;;;8.91;64.63;95374.34;4986598;28;20049;-85
2021/10/14 06:16:06;;;;;;;10.73;8.98;;;;;;;8.68;66.36;95376.69;5010232;28;20054;-86
2021/10/14 06:18:33;;;;;;;8.90;8.00;;;;;;;8.55;66.74;95389.69;5010234;28;20476;-86
2021/10/14 06:20:58;;;;;;;10.07;8.68;;;;;;;8.48;67.14;95388.91;5008573;28;20034;-86
2021/10/14 06:23:24;;;;;;;5.68;5.10;;;;;;;8.35;63.82;95393.13;5012584;28;20034;-86
2021/10/14 06:25:49;;;;;;;6.50;5.90;;;;;;;8.29;66.21;95391.28;4977717;28;20441;-85
2021/10/14 06:28:15;;;;;;;8.60;7.80;;;;;;;8.27;66.82;95398.47;5011179;28;20041;-86
2021/10/14 06:30:40;;;;;;;7.35;6.65;;;;;;;8.19;68.09;95398.72;5011580;28;20036;-85
2021/10/14 06:33:06;;;;;;;9.15;8.23;;;;;;;8.25;68.00;95397.91;4996190;28;20030;-86
2021/10/14 06:35:31;;;;;;;12.63;7.72;;;;;;;8.21;67.48;95398.50;4994925;28;20040;-85
2021/10/14 06:37:58;;;;;;;13.50;8.10;;;;;;;8.21;67.98;95398.50;4993387;28;20417;-85
2021/10/14 06:40:24;;;;;;;8.10;7.30;;;;;;;8.11;68.29;95398.91;5009088;28;20030;-85
2021/10/14 06:42:49;;;;;;;7.88;7.10;;;;;;;8.00;68.33;95407.31;4994335;28;20034;-85
2021/10/14 06:45:15;;;;;;;10.93;8.35;;;;;;;8.03;70.21;95409.50;4993358;28;20474;-85
2021/10/14 06:47:40;;;;;;;22.13;15.43;;;;;;;8.13;70.58;95405.50;5008633;28;20033;-85
2021/10/14 06:50:06;;;;;;;12.55;9.85;;;;;;;8.23;70.19;95415.44;4993933;28;20030;-85
2021/10/14 06:52:32;;;;;;;9.48;7.28;;;;;;;8.19;69.40;95411.66;4990527;28;20409;-85
2021/10/14 06:54:58;;;;;;;8.52;6.38;;;;;;;7.90;70.14;95409.50;5010268;28;20035;-85
2021/10/14 06:57:23;;;;;;;8.25;6.15;;;;;;;7.61;71.25;95423.63;5008814;28;20046;-85
2021/10/14 06:59:49;;;;;;;6.07;5.55;;;;;;;7.45;71.34;95424.81;4991984;28;20030;-85
2021/10/14 07:02:15;;;;;;;10.63;5.55;;;;;;;7.45;71.27;95424.81;5008396;28;20035;-85
2021/10/14 07:04:40;;;;;;;5.90;5.40;;;;;;;7.39;70.71;95435.94;5010652;28;20026;-84
2021/10/14 07:07:06;;;;;;;6.95;6.22;;;;;;;7.38;72.26;95440.31;5009456;28;20034;-85
2021/10/14 07:09:31;;;;;;;7.22;5.45;;;;;;;7.27;72.23;95434.91;4995404;28;20042;-84
2021/10/14 07:12:00;;;;;;;5.68;5.05;;;;;;;7.21;72.63;95432.13;5011559;28;20033;-85
2021/10/14 07:14:25;;;;;;;5.47;4.97;;;;;;;7.36;72.40;95444.09;5009207;28;20027;-84
2021/10/14 07:16:52;;;;;;;8.35;5.53;;;;;;;7.36;72.31;95446.69;4992766;28;20068;-85
2021/10/14 07:19:18;;;;;;;5.68;4.75;;;;;;;7.42;71.56;95435.56;4992276;28;20046;-86
2021/10/14 07:21:44;;;;;;;5.22;4.82;;;;;;;7.52;71.14;95438.56;5010732;28;20117;-85
2021/10/14 07:24:09;;;;;;;5.32;4.40;;;;;;;7.42;70.42;95440.72;4992712;28;20034;-84
2021/10/14 07:26:35;;;;;;;5.00;4.53;;;;;;;6.92;71.77;95435.03;4992646;28;20022;-85
2021/10/14 07:29:02;;;;;;;9.10;6.85;;;;;;;6.98;72.41;95436.81;4993117;28;20033;-85
2021/10/14 07:31:28;;;;;;;6.07;5.35;;;;;;;6.89;72.09;95445.75;5008725;28;20033;-85
2021/10/14 07:33:54;;;;;;;5.50;5.00;;;;;;;6.83;71.41;95452.50;4991057;28;20031;-85
2021/10/14 07:36:20;;;;;;;5.40;4.95;;;;;;;6.91;73.16;95436.00;5010815;28;20030;-86
2021/10/14 07:38:45;;;;;;;5.95;5.35;;;;;;;7.08;72.89;95439.84;4995400;28;20046;-84
2021/10/14 07:41:11;;;;;;;6.97;5.30;;;;;;;7.25;72.65;95434.31;4994765;28;20022;-85
2021/10/14 07:43:39;;;;;;;4.50;4.10;;;;;;;6.94;70.56;95425.28;5007810;28;20458;-83
2021/10/14 07:46:07;;;;;;;2.72;2.63;;;;;;;6.79;69.63;95435.75;4973807;28;20030;-85
2021/10/14 07:48:34;;;;;;;2.80;2.70;;;;;;;6.85;70.53;95444.53;5008559;28;20041;-85
2021/10/14 07:51:00;;;;;;;5.32;3.15;;;;;;;6.88;70.34;95446.75;5011374;28;20052;-86
2021/10/14 07:53:25;;;;;;;4.18;3.67;;;;;;;6.94;71.01;95448.53;4976326;28;20018;-85
2021/10/14 07:55:51;;;;;;;4.95;4.43;;;;;;;7.09;71.53;95444.03;5007093;28;20512;-86
2021/10/14 07:58:16;;;;;;;5.22;3.67;;;;;;;7.28;71.07;95447.66;4976325;28;20033;-84
2021/10/14 08:00:42;;;;;;;5.22;4.32;;;;;;;7.41;70.26;95450.28;5006456;28;20036;-86
2021/10/14 08:03:08;;;;;;;6.15;4.88;;;;;;;7.45;69.27;95448.09;4990104;28;20021;-85
2021/10/14 08:05:33;;;;;;;10.77;6.30;;;;;;;7.54;69.68;95444.34;5008738;28;20034;-85
2021/10/14 08:07:59;;;;;;;4.65;4.10;;;;;;;7.58;68.03;95444.72;4992470;28;20038;-86
2021/10/14 08:10:25;;;;;;;5.35;4.72;;;;;;;7.55;67.29;95451.09;5009971;28;20038;-85
2021/10/14 08:12:51;;;;;;;4.68;4.28;;;;;;;7.58;68.50;95437.75;4992159;28;20045;-85
2021/10/14 08:15:17;;;;;;;4.70;4.40;;;;;;;7.67;68.32;95448.75;4994207;28;20031;-85
2021/10/14 08:17:42;;;;;;;4.65;3.28;;;;;;;7.69;67.33;95436.38;4994550;28;20486;-85
2021/10/14 08:20:09;;;;;;;5.72;4.50;;;;;;;7.79;68.34;95437.56;4994355;28;20031;-85
2021/10/14 08:22:37;;;;;;;3.92;3.33;;;;;;;7.87;68.24;95435.78;4981605;28;20038;-86
2021/10/14 08:25:04;;;;;;;3.03;2.83;;;;;;;7.60;64.81;95433.19;4973686;28;20513;-86
2021/10/14 08:27:29;;;;;;;5.13;3.28;;;;;;;7.48;65.35;95435.56;5011603;28;20030;-86
2021/10/14 08:29:55;;;;;;;3.05;2.78;;;;;;;7.48;65.83;95437.34;5009799;28;20492;-86
2021/10/14 08:32:23;;;;;;;2.90;2.70;;;;;;;7.35;65.40;95439.94;4993798;28;20517;-85
2021/10/14 08:34:49;;;;;;;3.30;3.00;;;;;;;7.08;68.00;95437.25;5010412;28;20022;-85
2021/10/14 08:37:20;;;;;;;3.42;3.13;;;;;;;7.10;68.03;95435.28;5010791;28;20065;-86
2021/10/14 08:39:47;;;;;;;4.10;3.70;;;;;;;7.18;69.05;95445.47;4994754;28;20065;-86
2021/10/14 08:42:13;;;;;;;3.00;2.80;;;;;;;6.74;67.59;95438.13;4990901;28;20542;-86
2021/10/14 08:44:41;;;;;;;3.00;2.78;;;;;;;6.19;69.22;95428.69;5008229;28;20045;-86
2021/10/14 08:47:07;;;;;;;2.95;2.75;;;;;;;6.33;69.95;95425.19;4977495;28;20148;-86
2021/10/14 08:49:32;;;;;;;3.20;2.97;;;;;;;6.57;70.10;95423.94;4986720;28;20042;-85
2021/10/14 08:51:58;;;;;;;3.80;3.55;;;;;;;6.69;70.22;95427.56;5026879;28;20026;-84
2021/10/14 08:54:23;;;;;;;3.30;3.10;;;;;;;6.50;69.11;95431.63;4988679;28;20037;-83
2021/10/14 08:56:49;;;;;;;14.55;4.65;;;;;;;6.68;70.20;95436.31;4988663;28;20045;-85
2021/10/14 08:59:18;;;;;;;4.15;2.58;;;;;;;6.65;68.76;95438.47;5010231;28;20029;-83
2021/10/14 09:02:04;;;;;;;3.55;3.25;;;;;;;6.58;69.03;95438.44;4992156;28;20042;-85
2021/10/14 09:04:31;;;;;;;3.47;3.03;;;;;;;6.45;69.42;95428.84;4995436;28;20033;-85
2021/10/14 09:07:16;;;;;;;2.67;2.47;;;;;;;6.26;69.18;95430.31;4991660;28;20038;-85
2021/10/14 09:09:42;;;;;;;2.67;2.47;;;;;;;6.34;69.99;95437.09;5005234;28;20042;-86
2021/10/14 09:12:09;;;;;;;2.95;2.78;;;;;;;6.26;69.31;95434.69;4984555;28;20034;-85
2021/10/14 09:14:54;;;;;;;2.53;2.42;;;;;;;6.16;69.31;95439.38;5001173;28;20040;-85
2021/10/14 09:17:40;;;;;;;3.10;2.90;;;;;;;6.08;70.62;95434.38;5000397;28;20033;-84
2021/10/14 09:20:29;;;;;;;2.83;2.50;;;;;;;6.26;71.56;95434.69;4997402;28;20103;-86
2021/10/14 09:23:12;;;;;;;4.28;2.90;;;;;;;6.28;70.57;95428.34;5011959;28;20058;-85
2021/10/14 09:25:43;;;;;;;2.80;2.60;;;;;;;6.41;70.65;95427.63;5008464;28;20039;-86
2021/10/14 09:28:19;;;;;;;2.85;2.70;;;;;;;6.53;69.97;95431.28;4993705;28;20030;-85
2021/10/14 09:30:48;;;;;;;3.78;3.05;;;;;;;6.66;70.24;95440.06;5010479;28;20053;-85
2021/10/14 09:36:35;;;;;;;2.35;2.17;;;;;;;6.83;66.86;95420.66;5011752;28;20053;-84
2021/10/14 09:39:06;;;;;;;2.67;2.47;;;;;;;6.91;65.72;95434.22;5009751;28;20030;-85
2021/10/14 09:41:36;;;;;;;2.42;2.25;;;;;;;7.02;65.97;95440.63;4994751;28;20048;-84
2021/10/14 09:44:06;;;;;;;2.72;2.50;;;;;;;6.97;66.17;95424.88;4996031;28;20048;-85
2021/10/14 09:46:41;;;;;;;2.63;2.53;;;;;;;7.05;66.79;95429.91;5013023;28;20057;-84
2021/10/14 09:49:09;;;;;;;3.28;3.08;;;;;;;7.12;67.43;95430.69;4998754;28;20030;-84
2021/10/14 09:51:35;;;;;;;2.53;2.35;;;;;;;7.10;65.56;95430.09;4993427;28;20030;-85
2021/10/14 09:54:00;;;;;;;2.95;2.75;;;;;;;7.10;67.04;95422.34;4986752;28;20113;-85
2021/10/14 09:56:27;;;;;;;5.35;2.13;;;;;;;7.23;67.36;95427.56;5006427;28;20034;-85
2021/10/14 09:58:53;;;;;;;5.38;2.58;;;;;;;7.35;65.69;95424.41;5007374;28;20034;-83
2021/10/14 10:01:22;;;;;;;2.65;2.45;;;;;;;7.42;65.54;95425.19;4992356;28;20437;-85
2021/10/14 10:03:47;;;;;;;2.65;2.45;;;;;;;7.46;66.11;95426.38;4969947;28;20109;-85
2021/10/14 10:06:24;;;;;;;3.05;2.80;;;;;;;7.37;65.80;95419.81;5005181;28;20036;-85
2021/10/14 10:08:50;;;;;;;3.88;3.03;;;;;;;7.46;66.17;95426.38;4993329;28;20383;-84
2021/10/14 10:11:17;;;;;;;2.55;2.38;;;;;;;7.46;65.33;95418.63;4988939;28;20042;-85
2021/10/14 10:13:54;;;;;;;2.50;2.40;;;;;;;7.52;66.19;95423.03;4973980;28;20037;-85
2021/10/14 10:16:24;;;;;;;4.03;3.20;;;;;;;7.57;65.67;95418.06;5054463;23;20050;-85
2021/10/14 10:18:59;;;;;;;3.88;3.58;;;;;;;7.62;66.30;95410.47;4995637;28;20050;-86
2021/10/14 10:21:31;;;;;;;4.47;3.60;;;;;;;7.70;66.66;95415.47;4979676;28;20125;-85
2021/10/14 10:24:04;;;;;;;4.10;3.70;;;;;;;7.66;65.71;95410.91;4996349;28;20121;-85
2021/10/14 10:26:32;;;;;;;3.63;3.33;;;;;;;7.69;65.87;95407.91;4994625;28;20022;-86
2021/10/14 10:28:58;;;;;;;3.92;3.35;;;;;;;7.72;65.77;95407.50;4996802;28;20357;-85
2021/10/14 10:31:24;;;;;;;2.90;2.70;;;;;;;7.72;65.66;95410.91;4979752;28;20489;-85
2021/10/14 10:33:52;;;;;;;3.42;3.13;;;;;;;7.76;65.75;95406.91;4963140;28;20039;-85
2021/10/14 10:36:44;;;;;;;3.70;3.40;;;;;;;7.81;65.96;95398.56;4979521;28;20036;-85
2021/10/14 10:39:48;;;;;;;3.70;3.40;;;;;;;7.82;66.89;95395.78;4994966;28;20023;-85
2021/10/14 10:42:13;;;;;;;4.25;3.30;;;;;;;7.83;66.21;95386.22;4995452;28;20038;-85
2021/10/14 10:44:43;;;;;;;3.33;2.65;;;;;;;7.75;64.75;95384.59;4995655;28;20096;-85
2021/10/14 10:47:40;;;;;;;2.90;2.70;;;;;;;7.76;64.27;95381.03;5002455;28;20050;-85
2021/10/14 10:50:14;;;;;;;3.17;2.97;;;;;;;7.81;64.75;95389.00;5024246;28;20038;-84
2021/10/14 10:52:40;;;;;;;2.80;2.60;;;;;;;7.81;65.53;95383.81;5007415;28;20050;-84
2021/10/14 10:55:21;;;;;;;3.08;2.88;;;;;;;7.92;65.92;95386.78;4973676;28;20050;-84
2021/10/14 10:57:47;;;;;;;4.93;3.78;;;;;;;7.98;65.74;95378.22;5004052;28;20042;-85
2021/10/14 11:00:12;;;;;;;2.83;2.63;;;;;;;7.96;63.21;95390.56;4996946;28;20034;-86
2021/10/14 11:02:38;;;;;;;4.03;3.70;;;;;;;7.94;63.91;95393.34;4980652;28;20046;-85
2021/10/14 11:05:04;;;;;;;5.28;4.78;;;;;;;7.92;64.82;95389.38;4980584;28;20030;-86
2021/10/14 11:07:29;;;;;;;3.17;2.88;;;;;;;7.86;64.98;95395.38;4997943;28;20034;-85
2021/10/14 11:09:55;;;;;;;3.28;2.97;;;;;;;7.87;63.46;95389.19;4963652;28;20058;-85
2021/10/14 11:12:20;;;;;;;3.88;3.10;;;;;;;7.81;64.97;95377.84;4980400;28;20030;-85
2021/10/14 11:14:46;;;;;;;3.55;3.30;;;;;;;7.85;65.75;95379.03;4996307;28;20026;-85
2021/10/14 11:17:13;;;;;;;2.88;2.63;;;;;;;7.78;64.25;95379.03;4979063;28;20041;-85
2021/10/14 11:19:39;;;;;;;3.15;2.88;;;;;;;7.67;64.60;95377.06;4963115;28;20027;-85
2021/10/14 11:22:18;;;;;;;2.70;2.50;;;;;;;7.63;65.17;95370.66;4965813;28;20057;-85
2021/10/14 11:24:45;;;;;;;3.33;3.00;;;;;;;7.64;66.32;95367.06;4962481;28;20054;-85
2021/10/14 11:27:17;;;;;;;3.67;3.38;;;;;;;7.61;66.48;95367.47;4996398;28;20030;-84
2021/10/14 11:30:17;;;;;;;4.93;3.70;;;;;;;7.61;66.62;95372.66;4956173;28;20110;-85
2021/10/14 11:32:49;;;;;;;4.28;3.15;;;;;;;7.58;66.63;95370.47;4995909;28;20039;-85
2021/10/14 11:35:14;;;;;;;5.13;3.10;;;;;;;7.70;66.38;95361.13;4964385;28;20105;-85
2021/10/14 11:37:40;;;;;;;2.95;2.75;;;;;;;7.72;65.89;95358.34;4995459;28;20034;-84
2021/10/14 11:40:15;;;;;;;3.58;2.80;;;;;;;7.72;65.61;95363.50;4963916;28;20453;-84
2021/10/14 11:42:41;;;;;;;3.53;3.22;;;;;;;7.76;65.16;95365.50;4965390;28;20073;-86
2021/10/14 11:45:06;;;;;;;4.15;3.33;;;;;;;7.79;65.38;95366.88;4978770;28;20538;-84
2021/10/14 11:47:32;;;;;;;5.88;3.40;;;;;;;7.81;64.95;95363.13;4979283;28;20050;-85
2021/10/14 11:49:58;;;;;;;3.53;3.22;;;;;;;7.74;64.29;95362.31;4979580;28;20042;-85
2021/10/14 11:52:27;;;;;;;2.72;2.53;;;;;;;7.77;65.07;95369.66;4996483;28;20038;-83